createdAt,value
2018-07-28T00:00:49.003Z,27.62
2018-07-28T00:01:49.002Z,27.61
2018-07-28T00:02:49.123Z,27.6
2018-07-28T00:03:49.036Z,27.62
2018-07-28T00:04:49.093Z,27.6
2018-07-28T00:05:49.047Z,27.58
2018-07-28T00:06:49.005Z,27.6
2018-07-28T00:07:49.059Z,27.57
2018-07-28T00:08:49.037Z,27.56
2018-07-28T00:09:49.034Z,27.57
2018-07-28T00:10:49.008Z,27.56
2018-07-28T00:11:48.996Z,27.54
2018-07-28T00:12:48.983Z,27.57
2018-07-28T00:13:49.132Z,27.56
2018-07-28T00:14:48.983Z,27.56
2018-07-28T00:15:48.994Z,27.53
2018-07-28T00:16:49.329Z,27.51
2018-07-28T00:17:49.136Z,27.46
2018-07-28T00:18:48.980Z,27.47
2018-07-28T00:19:48.977Z,27.46
2018-07-28T00:20:49.043Z,27.46
2018-07-28T00:21:48.990Z,27.44
2018-07-28T00:22:48.982Z,27.44
2018-07-28T00:23:48.997Z,27.41
2018-07-28T00:24:49.431Z,27.44
2018-07-28T00:25:48.992Z,27.41
2018-07-28T00:26:48.966Z,27.4
2018-07-28T00:27:49.095Z,27.39
2018-07-28T00:28:48.981Z,27.37
2018-07-28T00:29:48.985Z,27.37
2018-07-28T00:30:48.970Z,27.36
2018-07-28T00:31:48.971Z,27.33
2018-07-28T00:32:49.068Z,27.33
2018-07-28T00:33:48.996Z,27.33
2018-07-28T00:34:48.988Z,27.33
2018-07-28T00:35:49.479Z,27.32
2018-07-28T00:36:48.979Z,27.3
2018-07-28T00:37:49.050Z,27.26
2018-07-28T00:38:49.014Z,27.27
2018-07-28T00:39:48.999Z,27.24
2018-07-28T00:40:49.116Z,27.2
2018-07-28T00:41:49.152Z,27.22
2018-07-28T00:42:48.993Z,27.19
2018-07-28T00:43:49.018Z,27.16
2018-07-28T00:44:48.970Z,27.17
2018-07-28T00:45:48.985Z,27.16
2018-07-28T00:46:48.973Z,27.13
2018-07-28T00:47:48.977Z,27.12
2018-07-28T00:48:49.021Z,27.13
2018-07-28T00:49:48.991Z,27.13
2018-07-28T00:50:48.999Z,27.12
2018-07-28T00:51:48.992Z,27.1
2018-07-28T00:52:48.994Z,27.1
2018-07-28T00:53:49.173Z,27.07
2018-07-28T00:54:48.964Z,27.06
2018-07-28T00:55:48.967Z,27.03
2018-07-28T00:56:48.976Z,27.05
2018-07-28T00:57:48.977Z,27.02
2018-07-28T00:58:48.988Z,27.03
2018-07-28T00:59:48.994Z,27.03
2018-07-28T01:00:49.003Z,27.01
2018-07-28T01:01:49.160Z,26.98
2018-07-28T01:02:48.981Z,26.98
2018-07-28T01:03:48.994Z,26.95
2018-07-28T01:04:48.989Z,26.92
2018-07-28T01:05:49.006Z,26.96
2018-07-28T01:06:49.004Z,26.95
2018-07-28T01:07:48.976Z,26.91
2018-07-28T01:08:48.992Z,26.88
2018-07-28T01:09:49.054Z,26.82
2018-07-28T01:10:48.976Z,26.82
2018-07-28T01:11:48.961Z,26.81
2018-07-28T01:12:49.324Z,26.79
2018-07-28T01:13:48.957Z,26.79
2018-07-28T01:14:49.025Z,26.78
2018-07-28T01:15:49.074Z,26.78
2018-07-28T01:16:48.954Z,26.79
2018-07-28T01:17:48.975Z,26.77
2018-07-28T01:18:48.992Z,26.77
2018-07-28T01:19:48.998Z,26.74
2018-07-28T01:20:48.995Z,26.75
2018-07-28T01:21:49.001Z,26.71
2018-07-28T01:22:49.043Z,26.7
2018-07-28T01:23:48.968Z,26.65
2018-07-28T01:24:48.999Z,26.65
2018-07-28T01:25:48.971Z,26.67
2018-07-28T01:26:48.959Z,26.67
2018-07-28T01:27:49.017Z,26.65
2018-07-28T01:28:48.985Z,26.65
2018-07-28T01:29:49.185Z,26.67
2018-07-28T01:30:49.037Z,26.64
2018-07-28T01:31:48.979Z,26.65
2018-07-28T01:32:49.014Z,26.62
2018-07-28T01:33:49.163Z,26.62
2018-07-28T01:34:48.966Z,26.61
2018-07-28T01:35:48.959Z,26.62
2018-07-28T01:36:49.035Z,26.61
2018-07-28T01:37:48.968Z,26.6
2018-07-28T01:38:49.017Z,26.6
2018-07-28T01:39:48.955Z,26.61
2018-07-28T01:40:48.993Z,26.57
2018-07-28T01:41:48.982Z,26.57
2018-07-28T01:42:49.006Z,26.54
2018-07-28T01:43:49.011Z,26.57
2018-07-28T01:44:48.971Z,26.53
2018-07-28T01:45:48.972Z,26.5
2018-07-28T01:46:49.050Z,26.51
2018-07-28T01:47:49.093Z,26.53
2018-07-28T01:48:49.018Z,26.48
2018-07-28T01:49:49.005Z,26.47
2018-07-28T01:50:48.970Z,26.46
2018-07-28T01:51:48.981Z,26.48
2018-07-28T01:52:48.965Z,26.48
2018-07-28T01:53:48.993Z,26.5
2018-07-28T01:54:48.960Z,26.44
2018-07-28T01:55:48.971Z,26.43
2018-07-28T01:56:48.969Z,26.42
2018-07-28T01:57:48.975Z,26.43
2018-07-28T01:58:48.989Z,26.42
2018-07-28T01:59:49.425Z,26.42
2018-07-28T02:00:48.972Z,26.4
2018-07-28T02:01:48.967Z,26.4
2018-07-28T02:02:48.996Z,26.37
2018-07-28T02:03:49.023Z,26.34
2018-07-28T02:04:48.989Z,26.34
2018-07-28T02:05:48.975Z,26.34
2018-07-28T02:06:48.972Z,26.32
2018-07-28T02:07:48.980Z,26.34
2018-07-28T02:08:48.982Z,26.3
2018-07-28T02:09:48.968Z,26.3
2018-07-28T02:10:49.620Z,26.29
2018-07-28T02:11:48.964Z,26.27
2018-07-28T02:12:48.982Z,26.27
2018-07-28T02:13:48.987Z,26.3
2018-07-28T02:14:49.003Z,26.27
2018-07-28T02:15:48.979Z,26.29
2018-07-28T02:16:48.971Z,26.26
2018-07-28T02:17:48.996Z,26.23
2018-07-28T02:18:48.985Z,26.25
2018-07-28T02:19:49.128Z,26.23
2018-07-28T02:20:49.007Z,26.2
2018-07-28T02:21:49.023Z,26.2
2018-07-28T02:22:49.003Z,26.17
2018-07-28T02:23:49.009Z,26.16
2018-07-28T02:24:48.984Z,26.16
2018-07-28T02:25:49.019Z,26.16
2018-07-28T02:26:48.966Z,26.13
2018-07-28T02:27:48.979Z,26.12
2018-07-28T02:28:49.121Z,26.12
2018-07-28T02:29:49.002Z,26.12
2018-07-28T02:30:49.275Z,26.15
2018-07-28T02:31:49.034Z,26.1
2018-07-28T02:32:48.982Z,26.12
2018-07-28T02:33:49.018Z,26.1
2018-07-28T02:34:48.967Z,26.09
2018-07-28T02:35:49.088Z,26.12
2018-07-28T02:36:49.168Z,26.08
2018-07-28T02:37:48.954Z,26.08
2018-07-28T02:38:48.983Z,26.08
2018-07-28T02:39:49.150Z,26.06
2018-07-28T02:40:48.969Z,26.02
2018-07-28T02:41:48.971Z,26.05
2018-07-28T02:42:48.990Z,25.99
2018-07-28T02:43:48.975Z,26
2018-07-28T02:44:49.030Z,25.98
2018-07-28T02:45:48.997Z,25.93
2018-07-28T02:46:49.001Z,25.93
2018-07-28T02:47:49.011Z,25.95
2018-07-28T02:48:49.130Z,25.93
2018-07-28T02:49:48.962Z,25.95
2018-07-28T02:50:49.311Z,25.95
2018-07-28T02:51:48.983Z,25.92
2018-07-28T02:52:49.017Z,25.91
2018-07-28T02:53:49.001Z,25.88
2018-07-28T02:54:48.993Z,25.85
2018-07-28T02:55:48.982Z,25.85
2018-07-28T02:56:48.963Z,25.82
2018-07-28T02:57:48.994Z,25.84
2018-07-28T02:58:49.150Z,25.8
2018-07-28T02:59:49.043Z,25.77
2018-07-28T03:00:48.962Z,25.77
2018-07-28T03:01:48.979Z,25.77
2018-07-28T03:02:49.354Z,25.75
2018-07-28T03:03:49.005Z,25.72
2018-07-28T03:04:48.981Z,25.74
2018-07-28T03:05:49.117Z,25.7
2018-07-28T03:06:48.991Z,25.68
2018-07-28T03:07:49.006Z,25.7
2018-07-28T03:08:49.141Z,25.7
2018-07-28T03:09:48.989Z,25.68
2018-07-28T03:10:48.997Z,25.67
2018-07-28T03:11:49.074Z,25.67
2018-07-28T03:12:49.454Z,25.67
2018-07-28T03:13:48.967Z,25.63
2018-07-28T03:14:48.983Z,25.63
2018-07-28T03:15:48.955Z,25.65
2018-07-28T03:16:48.965Z,25.67
2018-07-28T03:17:48.973Z,25.64
2018-07-28T03:18:49.025Z,25.64
2018-07-28T03:19:48.946Z,25.63
2018-07-28T03:20:48.968Z,25.63
2018-07-28T03:21:48.996Z,25.65
2018-07-28T03:22:48.966Z,25.61
2018-07-28T03:23:48.948Z,25.61
2018-07-28T03:24:48.958Z,25.6
2018-07-28T03:25:48.974Z,25.57
2018-07-28T03:26:49.023Z,25.56
2018-07-28T03:27:48.960Z,25.56
2018-07-28T03:28:48.942Z,25.54
2018-07-28T03:29:48.938Z,25.56
2018-07-28T03:30:48.982Z,25.51
2018-07-28T03:31:48.952Z,25.51
2018-07-28T03:32:48.956Z,25.5
2018-07-28T03:33:48.952Z,25.51
2018-07-28T03:34:48.970Z,25.5
2018-07-28T03:35:48.988Z,25.5
2018-07-28T03:36:48.956Z,25.46
2018-07-28T03:37:48.963Z,25.43
2018-07-28T03:38:48.982Z,25.43
2018-07-28T03:39:48.969Z,25.44
2018-07-28T03:40:48.980Z,25.37
2018-07-28T03:41:48.944Z,25.36
2018-07-28T03:42:48.954Z,25.33
2018-07-28T03:43:48.963Z,25.34
2018-07-28T03:44:48.996Z,25.33
2018-07-28T03:45:49.209Z,25.33
2018-07-28T03:46:48.992Z,25.34
2018-07-28T03:47:48.965Z,25.32
2018-07-28T03:48:49.008Z,25.25
2018-07-28T03:49:48.969Z,25.29
2018-07-28T03:50:49.096Z,25.29
2018-07-28T03:51:48.947Z,25.29
2018-07-28T03:52:48.950Z,25.26
2018-07-28T03:53:48.945Z,25.26
2018-07-28T03:54:48.973Z,25.27
2018-07-28T03:55:48.924Z,25.25
2018-07-28T03:56:49.120Z,25.25
2018-07-28T03:57:49.022Z,25.2
2018-07-28T03:58:48.983Z,25.15
2018-07-28T03:59:49.036Z,25.17
2018-07-28T04:00:49.062Z,25.12
2018-07-28T04:01:48.987Z,25.1
2018-07-28T04:02:48.996Z,25.09
2018-07-28T04:03:48.950Z,25.09
2018-07-28T04:04:48.941Z,25.06
2018-07-28T04:05:48.987Z,25.03
2018-07-28T04:06:48.923Z,25.05
2018-07-28T04:07:49.005Z,25.02
2018-07-28T04:08:48.968Z,25.03
2018-07-28T04:09:49.319Z,25.01
2018-07-28T04:10:48.973Z,24.99
2018-07-28T04:11:48.939Z,24.98
2018-07-28T04:12:48.931Z,24.98
2018-07-28T04:13:48.964Z,24.98
2018-07-28T04:14:48.969Z,24.97
2018-07-28T04:15:48.968Z,24.94
2018-07-28T04:16:48.967Z,24.94
2018-07-28T04:17:48.976Z,24.92
2018-07-28T04:18:48.958Z,24.91
2018-07-28T04:19:49.004Z,24.89
2018-07-28T04:20:48.955Z,24.89
2018-07-28T04:21:48.939Z,24.86
2018-07-28T04:22:48.961Z,24.85
2018-07-28T04:23:49.113Z,24.85
2018-07-28T04:24:48.981Z,24.85
2018-07-28T04:25:48.964Z,24.85
2018-07-28T04:26:49.043Z,24.85
2018-07-28T04:27:48.932Z,24.85
2018-07-28T04:28:48.948Z,24.81
2018-07-28T04:29:49.008Z,24.81
2018-07-28T04:30:48.936Z,24.78
2018-07-28T04:31:48.924Z,24.77
2018-07-28T04:32:48.951Z,24.77
2018-07-28T04:33:49.069Z,24.78
2018-07-28T04:34:48.930Z,24.78
2018-07-28T04:35:49.085Z,24.77
2018-07-28T04:36:48.976Z,24.77
2018-07-28T04:37:48.967Z,24.75
2018-07-28T04:38:48.932Z,24.74
2018-07-28T04:39:48.928Z,24.7
2018-07-28T04:40:48.945Z,24.71
2018-07-28T04:41:48.962Z,24.72
2018-07-28T04:42:48.926Z,24.68
2018-07-28T04:43:48.935Z,24.71
2018-07-28T04:44:48.939Z,24.7
2018-07-28T04:45:48.942Z,24.7
2018-07-28T04:46:48.971Z,24.68
2018-07-28T04:47:48.931Z,24.7
2018-07-28T04:48:48.925Z,24.71
2018-07-28T04:49:48.934Z,24.67
2018-07-28T04:50:49.094Z,24.65
2018-07-28T04:51:48.947Z,24.67
2018-07-28T04:52:48.953Z,24.65
2018-07-28T04:53:49.050Z,24.67
2018-07-28T04:54:49.022Z,24.68
2018-07-28T04:55:49.085Z,24.65
2018-07-28T04:56:48.922Z,24.67
2018-07-28T04:57:49.255Z,24.68
2018-07-28T04:58:49.255Z,24.71
2018-07-28T04:59:49.142Z,24.7
2018-07-28T05:00:48.968Z,24.72
2018-07-28T05:01:48.926Z,24.75
2018-07-28T05:02:48.939Z,24.74
2018-07-28T05:03:48.996Z,24.77
2018-07-28T05:04:48.970Z,24.78
2018-07-28T05:05:48.929Z,24.78
2018-07-28T05:06:49.189Z,24.77
2018-07-28T05:07:48.913Z,24.77
2018-07-28T05:08:49.123Z,24.77
2018-07-28T05:09:48.920Z,24.79
2018-07-28T05:10:48.948Z,24.82
2018-07-28T05:11:49.019Z,24.82
2018-07-28T05:12:49.113Z,24.85
2018-07-28T05:13:48.962Z,24.85
2018-07-28T05:14:49.052Z,24.86
2018-07-28T05:15:49.491Z,24.85
2018-07-28T05:16:49.042Z,24.86
2018-07-28T05:17:49.196Z,24.85
2018-07-28T05:18:49.416Z,24.89
2018-07-28T05:19:49.126Z,24.89
2018-07-28T05:20:49.013Z,24.89
2018-07-28T05:21:48.980Z,24.88
2018-07-28T05:22:48.933Z,24.91
2018-07-28T05:23:49.032Z,24.92
2018-07-28T05:24:48.974Z,24.92
2018-07-28T05:25:49.187Z,24.97
2018-07-28T05:26:48.991Z,24.95
2018-07-28T05:27:48.959Z,24.97
2018-07-28T05:28:49.002Z,25.01
2018-07-28T05:29:48.991Z,24.98
2018-07-28T05:30:49.041Z,25.01
2018-07-28T05:31:49.202Z,25.01
2018-07-28T05:32:48.951Z,24.99
2018-07-28T05:33:48.962Z,25.05
2018-07-28T05:34:48.946Z,25.01
2018-07-28T05:35:48.920Z,24.98
2018-07-28T05:36:48.958Z,24.99
2018-07-28T05:37:49.038Z,25.02
2018-07-28T05:38:48.919Z,24.99
2018-07-28T05:39:48.960Z,24.95
2018-07-28T05:40:49.352Z,24.98
2018-07-28T05:41:49.188Z,24.98
2018-07-28T05:42:49.776Z,24.94
2018-07-28T05:43:49.032Z,24.98
2018-07-28T05:44:49.113Z,25.06
2018-07-28T05:45:48.974Z,25.02
2018-07-28T05:46:48.967Z,25.05
2018-07-28T05:47:49.008Z,25.08
2018-07-28T05:48:48.938Z,25.08
2018-07-28T05:49:48.933Z,25.1
2018-07-28T05:50:48.923Z,25.09
2018-07-28T05:51:48.940Z,25.08
2018-07-28T05:52:48.930Z,25.09
2018-07-28T05:53:48.902Z,25.1
2018-07-28T05:54:48.933Z,25.1
2018-07-28T05:55:48.905Z,25.1
2018-07-28T05:56:48.912Z,25.12
2018-07-28T05:57:48.952Z,25.13
2018-07-28T05:58:48.941Z,25.15
2018-07-28T05:59:48.932Z,25.1
2018-07-28T06:00:48.960Z,25.13
2018-07-28T06:01:48.947Z,25.12
2018-07-28T06:02:49.126Z,25.12
2018-07-28T06:03:48.948Z,25.1
2018-07-28T06:04:48.945Z,25.12
2018-07-28T06:05:48.901Z,25.15
2018-07-28T06:06:48.904Z,25.15
2018-07-28T06:07:48.950Z,25.15
2018-07-28T06:08:48.907Z,25.13
2018-07-28T06:09:48.989Z,25.16
2018-07-28T06:10:49.159Z,25.17
2018-07-28T06:11:48.901Z,25.2
2018-07-28T06:12:48.971Z,25.25
2018-07-28T06:13:49.058Z,25.26
2018-07-28T06:14:48.961Z,25.29
2018-07-28T06:15:49.395Z,25.29
2018-07-28T06:16:48.992Z,25.33
2018-07-28T06:17:48.921Z,25.32
2018-07-28T06:18:48.921Z,25.34
2018-07-28T06:19:48.966Z,25.34
2018-07-28T06:20:49.022Z,25.37
2018-07-28T06:21:49.180Z,25.38
2018-07-28T06:22:48.956Z,25.36
2018-07-28T06:23:48.988Z,25.26
2018-07-28T06:24:49.067Z,25.17
2018-07-28T06:25:49.076Z,25.12
2018-07-28T06:26:49.000Z,25.1
2018-07-28T06:27:49.008Z,25.06
2018-07-28T06:28:49.027Z,25.05
2018-07-28T06:29:48.957Z,24.95
2018-07-28T06:30:48.985Z,24.89
2018-07-28T06:31:49.308Z,24.88
2018-07-28T06:32:49.017Z,24.86
2018-07-28T06:33:49.205Z,24.85
2018-07-28T06:34:48.963Z,24.72
2018-07-28T06:35:48.937Z,24.75
2018-07-28T06:36:48.998Z,24.77
2018-07-28T06:37:49.088Z,24.78
2018-07-28T06:38:49.017Z,24.71
2018-07-28T06:39:49.005Z,24.77
2018-07-28T06:40:48.922Z,24.77
2018-07-28T06:41:48.969Z,24.77
2018-07-28T06:42:48.915Z,24.79
2018-07-28T06:43:48.973Z,24.78
2018-07-28T06:44:49.072Z,24.77
2018-07-28T06:45:48.927Z,24.79
2018-07-28T06:46:49.189Z,24.82
2018-07-28T06:47:49.030Z,24.82
2018-07-28T06:48:48.946Z,24.83
2018-07-28T06:49:48.973Z,24.83
2018-07-28T06:50:48.949Z,24.81
2018-07-28T06:51:49.315Z,24.78
2018-07-28T06:52:49.012Z,24.83
2018-07-28T06:53:49.461Z,24.85
2018-07-28T06:54:48.890Z,24.82
2018-07-28T06:55:48.997Z,24.81
2018-07-28T06:56:49.039Z,24.85
2018-07-28T06:57:48.911Z,24.86
2018-07-28T06:58:49.015Z,24.86
2018-07-28T06:59:48.989Z,24.89
2018-07-28T07:00:48.915Z,24.88
2018-07-28T07:01:49.297Z,24.88
2018-07-28T07:02:48.927Z,24.89
2018-07-28T07:03:48.882Z,24.95
2018-07-28T07:04:49.181Z,24.98
2018-07-28T07:05:48.994Z,24.99
2018-07-28T07:06:49.021Z,25.01
2018-07-28T07:07:48.930Z,25.03
2018-07-28T07:08:48.883Z,25.05
2018-07-28T07:09:48.936Z,25.09
2018-07-28T07:10:48.952Z,25.12
2018-07-28T07:11:48.926Z,25.19
2018-07-28T07:12:48.940Z,25.17
2018-07-28T07:13:48.940Z,25.19
2018-07-28T07:14:48.990Z,25.25
2018-07-28T07:15:48.919Z,25.27
2018-07-28T07:16:48.914Z,25.3
2018-07-28T07:17:48.897Z,25.33
2018-07-28T07:18:48.927Z,25.37
2018-07-28T07:19:48.910Z,25.3
2018-07-28T07:20:48.901Z,25.32
2018-07-28T07:21:48.877Z,25.34
2018-07-28T07:22:48.957Z,25.37
2018-07-28T07:23:48.908Z,25.37
2018-07-28T07:24:49.201Z,25.38
2018-07-28T07:25:48.963Z,25.33
2018-07-28T07:26:48.940Z,25.36
2018-07-28T07:27:48.928Z,25.34
2018-07-28T07:28:49.002Z,25.33
2018-07-28T07:29:48.900Z,25.3
2018-07-28T07:30:49.016Z,25.36
2018-07-28T07:31:49.075Z,25.38
2018-07-28T07:32:49.015Z,25.43
2018-07-28T07:33:49.126Z,25.46
2018-07-28T07:34:48.949Z,25.48
2018-07-28T07:35:49.012Z,25.53
2018-07-28T07:36:48.994Z,25.54
2018-07-28T07:37:48.982Z,25.6
2018-07-28T07:38:48.900Z,25.6
2018-07-28T07:39:48.960Z,25.63
2018-07-28T07:40:49.261Z,25.64
2018-07-28T07:41:49.468Z,25.64
2018-07-28T07:42:49.044Z,25.68
2018-07-28T07:43:48.980Z,25.68
2018-07-28T07:44:48.975Z,25.72
2018-07-28T07:45:49.003Z,25.7
2018-07-28T07:46:49.025Z,25.72
2018-07-28T07:47:48.942Z,25.72
2018-07-28T07:48:49.047Z,25.77
2018-07-28T07:49:49.010Z,25.77
2018-07-28T07:50:48.967Z,25.78
2018-07-28T07:51:48.943Z,25.77
2018-07-28T07:52:48.904Z,25.77
2018-07-28T07:53:49.046Z,25.77
2018-07-28T07:54:49.000Z,25.78
2018-07-28T07:55:48.940Z,25.74
2018-07-28T07:56:48.933Z,25.65
2018-07-28T07:57:49.179Z,25.7
2018-07-28T07:58:49.037Z,25.7
2018-07-28T07:59:48.968Z,25.64
2018-07-28T08:00:49.005Z,25.57
2018-07-28T08:01:48.898Z,25.53
2018-07-28T08:02:48.980Z,25.46
2018-07-28T08:03:49.010Z,25.51
2018-07-28T08:04:49.090Z,25.54
2018-07-28T08:05:49.043Z,25.57
2018-07-28T08:06:48.987Z,25.6
2018-07-28T08:07:49.246Z,25.63
2018-07-28T08:08:49.045Z,25.65
2018-07-28T08:09:48.949Z,25.7
2018-07-28T08:10:49.090Z,25.71
2018-07-28T08:11:48.918Z,25.74
2018-07-28T08:12:48.887Z,25.77
2018-07-28T08:13:48.950Z,25.78
2018-07-28T08:14:48.970Z,25.82
2018-07-28T08:15:48.963Z,25.82
2018-07-28T08:16:48.949Z,25.85
2018-07-28T08:17:48.940Z,25.87
2018-07-28T08:18:48.960Z,25.85
2018-07-28T08:19:48.922Z,25.89
2018-07-28T08:20:48.931Z,25.91
2018-07-28T08:21:48.956Z,25.89
2018-07-28T08:22:48.965Z,25.89
2018-07-28T08:23:48.879Z,25.95
2018-07-28T08:24:49.196Z,25.98
2018-07-28T08:25:48.933Z,26
2018-07-28T08:26:49.276Z,26.03
2018-07-28T08:27:48.885Z,26.09
2018-07-28T08:28:48.884Z,26.13
2018-07-28T08:29:48.919Z,26.09
2018-07-28T08:30:48.930Z,26.15
2018-07-28T08:31:48.985Z,26.17
2018-07-28T08:32:48.899Z,26.26
2018-07-28T08:33:49.002Z,26.25
2018-07-28T08:34:48.967Z,26.3
2018-07-28T08:35:48.886Z,26.32
2018-07-28T08:36:48.871Z,26.34
2018-07-28T08:37:49.077Z,26.32
2018-07-28T08:38:48.867Z,26.32
2018-07-28T08:39:49.031Z,26.33
2018-07-28T08:40:48.923Z,26.33
2018-07-28T08:41:48.885Z,26.34
2018-07-28T08:42:48.963Z,26.36
2018-07-28T08:43:48.966Z,26.36
2018-07-28T08:44:48.935Z,26.4
2018-07-28T08:45:48.934Z,26.43
2018-07-28T08:46:49.086Z,26.5
2018-07-28T08:47:48.971Z,26.57
2018-07-28T08:48:49.137Z,26.62
2018-07-28T08:49:48.886Z,26.68
2018-07-28T08:50:48.936Z,26.78
2018-07-28T08:51:49.061Z,26.82
2018-07-28T08:52:48.991Z,26.92
2018-07-28T08:53:49.050Z,26.96
2018-07-28T08:54:49.006Z,27.02
2018-07-28T08:55:49.064Z,27.06
2018-07-28T08:56:49.173Z,27.1
2018-07-28T08:57:48.951Z,27.15
2018-07-28T08:58:48.979Z,27.2
2018-07-28T08:59:49.098Z,27.29
2018-07-28T09:00:49.131Z,27.29
2018-07-28T09:01:48.886Z,27.29
2018-07-28T09:02:49.009Z,27.33
2018-07-28T09:03:49.244Z,27.32
2018-07-28T09:04:49.029Z,27.32
2018-07-28T09:05:49.204Z,27.29
2018-07-28T09:06:49.041Z,27.26
2018-07-28T09:07:49.041Z,27.24
2018-07-28T09:08:48.954Z,27.22
2018-07-28T09:09:49.007Z,27.19
2018-07-28T09:10:48.957Z,27.2
2018-07-28T09:11:48.890Z,27.2
2018-07-28T09:12:48.971Z,27.17
2018-07-28T09:13:49.191Z,27.17
2018-07-28T09:14:49.084Z,27.22
2018-07-28T09:15:48.987Z,27.3
2018-07-28T09:16:49.001Z,27.39
2018-07-28T09:17:49.116Z,27.46
2018-07-28T09:18:48.908Z,27.5
2018-07-28T09:19:48.939Z,27.5
2018-07-28T09:20:48.948Z,27.56
2018-07-28T09:21:49.039Z,27.6
2018-07-28T09:22:49.049Z,27.62
2018-07-28T09:23:49.054Z,27.68
2018-07-28T09:24:48.914Z,27.74
2018-07-28T09:25:48.992Z,27.82
2018-07-28T09:26:49.140Z,27.89
2018-07-28T09:27:48.926Z,27.95
2018-07-28T09:28:48.887Z,27.98
2018-07-28T09:29:48.949Z,27.99
2018-07-28T09:30:48.961Z,27.93
2018-07-28T09:31:48.890Z,27.89
2018-07-28T09:32:49.012Z,27.84
2018-07-28T09:33:49.041Z,27.85
2018-07-28T09:34:49.044Z,27.82
2018-07-28T09:35:48.889Z,27.85
2018-07-28T09:36:49.192Z,27.84
2018-07-28T09:37:49.215Z,27.85
2018-07-28T09:38:48.997Z,27.87
2018-07-28T09:39:49.050Z,27.85
2018-07-28T09:40:49.056Z,27.91
2018-07-28T09:41:49.180Z,28.05
2018-07-28T09:42:49.108Z,28.02
2018-07-28T09:43:48.885Z,28.05
2018-07-28T09:44:48.934Z,28.13
2018-07-28T09:45:48.918Z,28.2
2018-07-28T09:46:48.901Z,28.23
2018-07-28T09:47:48.930Z,28.24
2018-07-28T09:48:48.906Z,28.23
2018-07-28T09:49:48.956Z,28.23
2018-07-28T09:50:48.911Z,28.24
2018-07-28T09:51:49.139Z,28.23
2018-07-28T09:52:49.042Z,28.22
2018-07-28T09:53:48.867Z,28.23
2018-07-28T09:54:49.014Z,28.29
2018-07-28T09:55:48.917Z,28.34
2018-07-28T09:56:48.879Z,28.34
2018-07-28T09:57:48.934Z,28.39
2018-07-28T09:58:48.879Z,28.41
2018-07-28T09:59:48.869Z,28.41
2018-07-28T10:00:49.100Z,28.46
2018-07-28T10:01:48.886Z,28.48
2018-07-28T10:02:49.118Z,28.5
2018-07-28T10:03:48.860Z,28.5
2018-07-28T10:04:48.922Z,28.57
2018-07-28T10:05:48.913Z,28.64
2018-07-28T10:06:49.147Z,28.71
2018-07-28T10:07:49.086Z,28.75
2018-07-28T10:08:48.888Z,28.77
2018-07-28T10:09:48.893Z,28.75
2018-07-28T10:10:49.060Z,28.77
2018-07-28T10:11:49.173Z,28.77
2018-07-28T10:12:48.969Z,28.85
2018-07-28T10:13:48.946Z,28.92
2018-07-28T10:14:48.986Z,28.95
2018-07-28T10:15:49.007Z,28.95
2018-07-28T10:16:48.882Z,28.96
2018-07-28T10:17:49.054Z,29.01
2018-07-28T10:18:48.897Z,28.99
2018-07-28T10:19:48.855Z,28.88
2018-07-28T10:20:49.037Z,28.89
2018-07-28T10:21:49.034Z,28.89
2018-07-28T10:22:49.008Z,28.88
2018-07-28T10:23:48.933Z,28.81
2018-07-28T10:24:48.875Z,28.67
2018-07-28T10:25:49.066Z,28.64
2018-07-28T10:26:48.917Z,28.67
2018-07-28T10:27:48.948Z,28.63
2018-07-28T10:28:48.869Z,28.54
2018-07-28T10:29:48.983Z,28.6
2018-07-28T10:30:48.963Z,28.66
2018-07-28T10:31:48.969Z,28.73
2018-07-28T10:32:48.865Z,28.79
2018-07-28T10:33:48.916Z,28.81
2018-07-28T10:34:49.043Z,28.86
2018-07-28T10:35:48.942Z,28.84
2018-07-28T10:36:49.143Z,28.86
2018-07-28T10:37:49.011Z,28.85
2018-07-28T10:38:49.063Z,28.79
2018-07-28T10:39:48.991Z,28.82
2018-07-28T10:40:48.963Z,28.81
2018-07-28T10:41:48.969Z,28.84
2018-07-28T10:42:48.999Z,28.82
2018-07-28T10:43:48.871Z,28.77
2018-07-28T10:44:49.011Z,28.73
2018-07-28T10:45:48.886Z,28.78
2018-07-28T10:46:48.947Z,28.86
2018-07-28T10:47:49.009Z,28.88
2018-07-28T10:48:48.986Z,28.91
2018-07-28T10:49:48.944Z,28.94
2018-07-28T10:50:48.978Z,28.98
2018-07-28T10:51:49.297Z,29.05
2018-07-28T10:52:49.005Z,29.07
2018-07-28T10:53:49.255Z,29.1
2018-07-28T10:54:49.092Z,29.07
2018-07-28T10:55:49.112Z,29.09
2018-07-28T10:56:48.966Z,29.03
2018-07-28T10:57:48.966Z,28.99
2018-07-28T10:58:48.965Z,29.02
2018-07-28T10:59:48.932Z,29.09
2018-07-28T11:00:48.934Z,29.16
2018-07-28T11:01:48.953Z,29.2
2018-07-28T11:02:48.775Z,29.29
2018-07-28T11:03:48.863Z,29.28
2018-07-28T11:04:48.962Z,29.32
2018-07-28T11:05:48.876Z,29.33
2018-07-28T11:06:49.072Z,29.37
2018-07-28T11:07:48.916Z,29.39
2018-07-28T11:08:48.879Z,29.4
2018-07-28T11:09:48.885Z,29.41
2018-07-28T11:10:48.918Z,29.47
2018-07-28T11:11:48.949Z,29.5
2018-07-28T11:12:49.026Z,29.51
2018-07-28T11:13:48.998Z,29.5
2018-07-28T11:14:48.976Z,29.51
2018-07-28T11:15:48.936Z,29.44
2018-07-28T11:16:48.896Z,29.5
2018-07-28T11:17:48.931Z,29.51
2018-07-28T11:18:49.095Z,29.54
2018-07-28T11:19:48.924Z,29.56
2018-07-28T11:20:48.929Z,29.58
2018-07-28T11:21:49.080Z,29.61
2018-07-28T11:22:48.894Z,29.69
2018-07-28T11:23:49.041Z,29.71
2018-07-28T11:24:48.950Z,29.76
2018-07-28T11:25:49.206Z,29.78
2018-07-28T11:26:49.006Z,29.81
2018-07-28T11:27:48.891Z,29.85
2018-07-28T11:28:49.007Z,29.78
2018-07-28T11:29:48.997Z,29.82
2018-07-28T11:30:49.100Z,29.88
2018-07-28T11:31:49.447Z,29.88
2018-07-28T11:32:49.086Z,29.99
2018-07-28T11:33:48.990Z,30.03
2018-07-28T11:34:49.001Z,30.06
2018-07-28T11:35:49.021Z,30.08
2018-07-28T11:36:48.968Z,29.98
2018-07-28T11:37:49.171Z,30.08
2018-07-28T11:38:48.991Z,30.08
2018-07-28T11:39:48.933Z,30.08
2018-07-28T11:40:48.938Z,30.11
2018-07-28T11:41:48.969Z,30.08
2018-07-28T11:42:49.013Z,30.19
2018-07-28T11:43:48.966Z,30.26
2018-07-28T11:44:48.913Z,30.33
2018-07-28T11:45:49.189Z,30.37
2018-07-28T11:46:49.003Z,30.39
2018-07-28T11:47:48.956Z,30.36
2018-07-28T11:48:48.983Z,30.37
2018-07-28T11:49:48.965Z,30.31
2018-07-28T11:50:48.963Z,30.37
2018-07-28T11:51:49.019Z,30.4
2018-07-28T11:52:49.001Z,30.47
2018-07-28T11:53:48.950Z,30.47
2018-07-28T11:54:48.999Z,30.43
2018-07-28T11:55:49.101Z,30.37
2018-07-28T11:56:48.971Z,30.46
2018-07-28T11:57:49.002Z,30.44
2018-07-28T11:58:49.132Z,30.43
2018-07-28T11:59:48.979Z,30.41
2018-07-28T12:00:48.981Z,30.43
2018-07-28T12:01:49.292Z,30.5
2018-07-28T12:02:49.005Z,30.58
2018-07-28T12:03:48.970Z,30.7
2018-07-28T12:04:48.954Z,30.73
2018-07-28T12:05:48.979Z,30.78
2018-07-28T12:06:48.961Z,30.68
2018-07-28T12:07:48.967Z,30.73
2018-07-28T12:08:48.957Z,30.71
2018-07-28T12:09:48.973Z,30.64
2018-07-28T12:10:48.960Z,30.67
2018-07-28T12:11:49.086Z,30.6
2018-07-28T12:12:48.960Z,30.65
2018-07-28T12:13:48.998Z,30.68
2018-07-28T12:14:49.202Z,30.78
2018-07-28T12:15:49.011Z,30.79
2018-07-28T12:16:49.086Z,30.77
2018-07-28T12:17:48.948Z,30.78
2018-07-28T12:18:48.997Z,30.74
2018-07-28T12:19:49.006Z,30.71
2018-07-28T12:20:48.975Z,30.64
2018-07-28T12:21:48.973Z,30.57
2018-07-28T12:22:48.960Z,30.43
2018-07-28T12:23:49.021Z,30.41
2018-07-28T12:24:48.961Z,30.43
2018-07-28T12:25:49.030Z,30.43
2018-07-28T12:26:48.981Z,30.39
2018-07-28T12:27:48.987Z,30.47
2018-07-28T12:28:48.995Z,30.39
2018-07-28T12:29:49.023Z,30.37
2018-07-28T12:30:49.003Z,30.44
2018-07-28T12:31:48.989Z,30.51
2018-07-28T12:32:48.988Z,30.51
2018-07-28T12:33:49.187Z,30.57
2018-07-28T12:34:49.172Z,30.65
2018-07-28T12:35:49.108Z,30.65
2018-07-28T12:36:49.192Z,30.71
2018-07-28T12:37:48.990Z,30.78
2018-07-28T12:38:49.008Z,30.86
2018-07-28T12:39:49.043Z,30.98
2018-07-28T12:40:49.041Z,30.92
2018-07-28T12:41:48.980Z,30.95
2018-07-28T12:42:48.997Z,30.92
2018-07-28T12:43:48.975Z,30.92
2018-07-28T12:44:49.144Z,30.85
2018-07-28T12:45:49.097Z,30.86
2018-07-28T12:46:49.006Z,30.86
2018-07-28T12:47:49.059Z,30.81
2018-07-28T12:48:48.983Z,30.81
2018-07-28T12:49:49.084Z,30.85
2018-07-28T12:50:49.053Z,30.88
2018-07-28T12:51:49.046Z,30.86
2018-07-28T12:52:49.020Z,30.85
2018-07-28T12:53:49.023Z,30.82
2018-07-28T12:54:49.136Z,30.82
2018-07-28T12:55:49.011Z,30.93